createdAt,value
2019-06-27T00:01:56.880Z,20.20
2019-06-27T00:04:01.407Z,20.20
2019-06-27T00:06:05.924Z,20.10
2019-06-27T00:08:10.299Z,20.10
2019-06-27T00:10:17.186Z,20.10
2019-06-27T00:12:22.102Z,20.00
2019-06-27T00:14:26.862Z,19.80
2019-06-27T00:16:31.585Z,19.80
2019-06-27T00:18:36.428Z,19.70
2019-06-27T00:20:41.799Z,19.60
2019-06-27T00:22:46.781Z,19.60
2019-06-27T00:24:51.943Z,19.60
2019-06-27T00:26:57.720Z,19.60
2019-06-27T00:29:02.868Z,19.50
2019-06-27T00:31:07.290Z,19.50
2019-06-27T00:33:14.667Z,19.50
2019-06-27T00:35:19.828Z,19.40
2019-06-27T00:37:24.326Z,19.40
2019-06-27T00:39:28.735Z,19.30
2019-06-27T00:41:33.421Z,19.30
2019-06-27T00:43:37.882Z,19.30
2019-06-27T00:45:42.637Z,19.30
2019-06-27T00:47:46.984Z,19.20
2019-06-27T00:49:51.803Z,19.10
2019-06-27T00:51:56.628Z,19.10
2019-06-27T00:54:01.011Z,19.00
2019-06-27T00:56:05.791Z,18.90
2019-06-27T00:58:10.163Z,18.90
2019-06-27T01:00:16.640Z,18.80
2019-06-27T01:02:21.102Z,18.90
2019-06-27T01:04:25.942Z,18.90
2019-06-27T01:06:30.678Z,18.80
2019-06-27T01:08:35.952Z,18.80
2019-06-27T01:10:40.422Z,18.70
2019-06-27T01:12:44.831Z,18.70
2019-06-27T01:14:49.561Z,18.70
2019-06-27T01:16:54.306Z,18.80
2019-06-27T01:18:59.442Z,18.70
2019-06-27T01:21:03.953Z,18.70
2019-06-27T01:23:09.698Z,18.60
2019-06-27T01:25:14.431Z,18.60
2019-06-27T01:27:29.512Z,18.50
2019-06-27T01:29:25.282Z,18.60
2019-06-27T01:31:30.110Z,18.50
2019-06-27T01:33:34.590Z,18.50
2019-06-27T01:35:39.086Z,18.30
2019-06-27T01:37:43.906Z,18.30
2019-06-27T01:39:48.777Z,18.30
2019-06-27T01:41:53.260Z,18.20
2019-06-27T01:43:57.781Z,18.20
2019-06-27T01:46:03.564Z,18.20
2019-06-27T01:48:08.067Z,18.20
2019-06-27T01:50:15.151Z,18.10
2019-06-27T01:52:20.037Z,18.10
2019-06-27T01:54:24.899Z,18.00
2019-06-27T01:56:29.414Z,18.00
2019-06-27T01:58:34.248Z,18.00
2019-06-27T02:00:39.067Z,18.00
2019-06-27T02:02:43.548Z,17.90
2019-06-27T02:04:48.346Z,17.80
2019-06-27T02:06:52.986Z,17.80
2019-06-27T02:08:57.406Z,17.70
2019-06-27T02:11:02.178Z,17.70
2019-06-27T02:13:06.689Z,17.80
2019-06-27T02:15:15.480Z,17.80
2019-06-27T02:17:20.023Z,17.80
2019-06-27T02:19:25.147Z,17.80
2019-06-27T02:21:29.852Z,17.80
2019-06-27T02:23:34.304Z,17.70
2019-06-27T02:25:40.155Z,17.70
2019-06-27T02:27:45.419Z,17.70
2019-06-27T02:29:51.306Z,17.70
2019-06-27T02:31:55.771Z,17.70
2019-06-27T02:34:00.610Z,17.60
2019-06-27T02:36:05.649Z,17.60
2019-06-27T02:38:10.087Z,17.60
2019-06-27T02:40:14.803Z,17.60
2019-06-27T02:42:19.300Z,17.60
2019-06-27T02:44:26.428Z,17.60
2019-06-27T02:46:30.900Z,17.60
2019-06-27T02:48:35.737Z,17.50
2019-06-27T02:50:40.812Z,17.50
2019-06-27T02:52:45.959Z,17.50
2019-06-27T02:54:50.375Z,17.60
2019-06-27T02:56:54.858Z,17.60
2019-06-27T02:58:59.658Z,17.40
2019-06-27T03:01:04.155Z,17.40
2019-06-27T03:03:08.664Z,17.50
2019-06-27T03:05:13.282Z,17.40
2019-06-27T03:07:17.767Z,17.30
2019-06-27T03:09:22.530Z,17.30
2019-06-27T03:11:27.031Z,17.30
2019-06-27T03:13:31.898Z,17.30
2019-06-27T03:15:36.371Z,17.30
2019-06-27T03:17:40.758Z,17.30
2019-06-27T03:19:45.542Z,17.30
2019-06-27T03:21:50.046Z,17.20
2019-06-27T03:23:54.604Z,17.20
2019-06-27T03:25:59.420Z,17.20
2019-06-27T03:28:05.463Z,17.30
2019-06-27T03:30:10.112Z,17.30
2019-06-27T03:32:14.682Z,17.20
2019-06-27T03:34:19.123Z,17.30
2019-06-27T03:36:23.602Z,17.30
2019-06-27T03:38:28.147Z,17.30
2019-06-27T03:40:32.664Z,17.20
2019-06-27T03:42:37.685Z,17.20
2019-06-27T03:44:42.202Z,17.20
2019-06-27T03:46:46.612Z,17.10
2019-06-27T03:48:51.066Z,17.20
2019-06-27T03:50:56.394Z,17.20
2019-06-27T03:53:01.027Z,17.20
2019-06-27T03:55:05.576Z,17.20
2019-06-27T03:57:10.457Z,17.20
2019-06-27T03:59:14.881Z,17.30
2019-06-27T04:01:19.336Z,17.20
2019-06-27T04:03:24.022Z,17.20
2019-06-27T04:05:28.767Z,17.20
2019-06-27T04:07:33.259Z,17.20
2019-06-27T04:09:38.325Z,17.30
2019-06-27T04:11:42.912Z,17.40
2019-06-27T04:13:47.349Z,17.40
2019-06-27T04:15:52.190Z,17.40
2019-06-27T04:17:56.595Z,17.40
2019-06-27T04:20:01.025Z,17.50
2019-06-27T04:22:05.404Z,17.50
2019-06-27T04:24:10.105Z,17.50
2019-06-27T04:26:14.679Z,17.50
2019-06-27T04:28:20.490Z,17.50
2019-06-27T04:30:25.306Z,17.60
2019-06-27T04:32:30.275Z,17.60
2019-06-27T04:34:34.899Z,17.70
2019-06-27T04:36:39.483Z,17.70
2019-06-27T04:38:44.226Z,17.70
2019-06-27T04:40:49.384Z,17.70
2019-06-27T04:42:53.832Z,17.70
2019-06-27T04:44:58.663Z,17.80
2019-06-27T04:47:03.539Z,17.90
2019-06-27T04:49:13.003Z,17.80
2019-06-27T04:51:15.586Z,17.90
2019-06-27T04:53:20.459Z,17.90
2019-06-27T04:55:24.978Z,17.80
2019-06-27T04:57:29.556Z,17.80
2019-06-27T04:59:51.773Z,17.70
2019-06-27T05:01:40.946Z,17.70
2019-06-27T05:03:45.739Z,17.80
2019-06-27T05:05:50.328Z,17.70
2019-06-27T05:07:54.713Z,17.70
2019-06-27T05:09:59.094Z,17.70
2019-06-27T05:12:04.004Z,17.80
2019-06-27T05:14:08.515Z,17.90
2019-06-27T05:16:13.149Z,17.80
2019-06-27T05:18:18.010Z,17.80
2019-06-27T05:20:22.905Z,17.90
2019-06-27T05:22:27.480Z,17.90
2019-06-27T05:24:31.923Z,17.90
2019-06-27T05:26:36.414Z,17.90
2019-06-27T05:28:43.878Z,17.80
2019-06-27T05:30:51.391Z,17.80
2019-06-27T05:32:55.257Z,17.90
2019-06-27T05:34:59.875Z,17.80
2019-06-27T05:37:04.788Z,17.80
2019-06-27T05:39:09.228Z,17.80
2019-06-27T05:41:13.720Z,17.80
2019-06-27T05:43:18.250Z,17.90
2019-06-27T05:45:22.733Z,17.90
2019-06-27T05:47:27.438Z,17.80
2019-06-27T05:49:32.131Z,17.80
2019-06-27T05:51:36.492Z,17.70
2019-06-27T05:53:40.889Z,17.60
2019-06-27T05:55:45.330Z,17.70
2019-06-27T05:57:49.707Z,17.70
2019-06-27T05:59:54.187Z,17.80
2019-06-27T06:01:59.007Z,17.80
2019-06-27T06:04:03.448Z,17.90
2019-06-27T06:06:09.029Z,18.00
2019-06-27T06:08:13.524Z,18.00
2019-06-27T06:10:17.973Z,17.90
2019-06-27T06:12:22.744Z,17.90
2019-06-27T06:14:27.300Z,17.90
2019-06-27T06:16:32.116Z,17.90
2019-06-27T06:18:36.713Z,17.80
2019-06-27T06:20:41.270Z,17.90
2019-06-27T06:22:46.153Z,18.00
2019-06-27T06:24:50.787Z,18.00
2019-06-27T06:26:55.341Z,18.10
2019-06-27T06:29:00.434Z,18.10
2019-06-27T06:31:05.978Z,18.10
2019-06-27T06:33:10.535Z,18.10
2019-06-27T06:35:15.092Z,18.20
2019-06-27T06:37:19.650Z,18.30
2019-06-27T06:39:24.651Z,18.40
2019-06-27T06:41:29.092Z,18.40
2019-06-27T06:43:33.858Z,18.50
2019-06-27T06:45:38.391Z,18.50
2019-06-27T06:47:42.932Z,18.60
2019-06-27T06:49:47.373Z,18.70
2019-06-27T06:51:52.314Z,18.70
2019-06-27T06:53:57.843Z,18.70
2019-06-27T06:56:02.392Z,18.60
2019-06-27T06:58:07.280Z,18.50
2019-06-27T07:00:14.233Z,18.40
2019-06-27T07:02:18.815Z,18.40
2019-06-27T07:04:23.404Z,18.30
2019-06-27T07:06:28.558Z,18.50
2019-06-27T07:08:33.112Z,18.50
2019-06-27T07:10:38.031Z,18.50
2019-06-27T07:12:42.667Z,18.60
2019-06-27T07:14:47.464Z,18.50
2019-06-27T07:16:52.679Z,18.50
2019-06-27T07:18:57.852Z,18.50
2019-06-27T07:21:02.786Z,18.60
2019-06-27T07:23:07.740Z,18.60
2019-06-27T07:25:12.634Z,18.50
2019-06-27T07:27:17.411Z,18.60
2019-06-27T07:29:22.173Z,18.60
2019-06-27T07:31:27.913Z,18.60
2019-06-27T07:33:32.520Z,18.80
2019-06-27T07:35:37.716Z,18.80
2019-06-27T07:37:42.229Z,18.80
2019-06-27T07:39:46.742Z,18.90
2019-06-27T07:41:51.959Z,18.90
2019-06-27T07:43:56.428Z,19.00
2019-06-27T07:46:02.167Z,19.10
2019-06-27T07:48:06.691Z,19.10
2019-06-27T07:50:12.019Z,19.10
2019-06-27T07:52:16.590Z,19.00
2019-06-27T07:54:21.076Z,19.00
2019-06-27T07:56:25.433Z,19.00
2019-06-27T07:58:30.354Z,19.10
2019-06-27T08:00:36.520Z,19.30
2019-06-27T08:02:41.026Z,19.30
2019-06-27T08:04:45.568Z,19.30
2019-06-27T08:06:51.999Z,19.30
2019-06-27T08:08:57.003Z,19.20
2019-06-27T08:11:02.136Z,19.20
2019-06-27T08:13:07.246Z,19.30
2019-06-27T08:15:12.270Z,19.30
2019-06-27T08:17:16.931Z,19.40
2019-06-27T08:19:23.932Z,19.40
2019-06-27T08:21:28.534Z,19.50
2019-06-27T08:23:41.593Z,19.40
2019-06-27T08:25:41.247Z,19.50
2019-06-27T08:27:45.779Z,19.50
2019-06-27T08:29:50.292Z,19.70
2019-06-27T08:31:54.806Z,19.70
2019-06-27T08:34:04.174Z,19.80
2019-06-27T08:36:08.652Z,19.80
2019-06-27T08:38:13.112Z,19.90
2019-06-27T08:40:17.814Z,20.00
2019-06-27T08:42:22.336Z,20.20
2019-06-27T08:44:28.280Z,20.30
2019-06-27T08:46:36.494Z,20.50
2019-06-27T08:48:40.947Z,20.60
2019-06-27T08:50:45.496Z,20.70
2019-06-27T08:52:50.004Z,20.80
2019-06-27T08:54:54.502Z,20.90
2019-06-27T08:56:59.093Z,21.00
2019-06-27T08:59:03.845Z,21.00
2019-06-27T09:01:08.256Z,21.00
2019-06-27T09:03:13.209Z,21.00
2019-06-27T09:05:17.738Z,20.90
2019-06-27T09:07:22.216Z,21.00
2019-06-27T09:09:26.701Z,21.00
2019-06-27T09:11:33.855Z,21.00
2019-06-27T09:13:37.423Z,21.00
2019-06-27T09:15:42.179Z,21.10
2019-06-27T09:17:46.629Z,21.00
2019-06-27T09:19:51.988Z,21.10
2019-06-27T09:21:56.574Z,21.20
2019-06-27T09:24:01.095Z,21.20
2019-06-27T09:26:05.633Z,21.30
2019-06-27T09:28:10.117Z,21.30
2019-06-27T09:30:16.243Z,21.20
2019-06-27T09:32:25.376Z,21.40
2019-06-27T09:34:28.083Z,21.50
2019-06-27T09:36:32.903Z,21.60
2019-06-27T09:38:37.448Z,21.60
2019-06-27T09:40:42.765Z,21.60
2019-06-27T09:42:47.310Z,21.70
2019-06-27T09:44:52.134Z,21.80
2019-06-27T09:46:56.545Z,21.90
2019-06-27T09:49:01.045Z,22.00
2019-06-27T09:51:05.365Z,22.00
2019-06-27T09:53:09.902Z,21.90
2019-06-27T09:55:14.873Z,22.10
2019-06-27T09:57:20.609Z,22.00
2019-06-27T09:59:25.789Z,22.00
2019-06-27T10:01:30.200Z,22.00
2019-06-27T10:03:34.699Z,22.00
2019-06-27T10:05:39.821Z,22.00
2019-06-27T10:07:44.321Z,22.00
2019-06-27T10:09:48.650Z,22.20
2019-06-27T10:11:53.519Z,22.30
2019-06-27T10:13:58.034Z,22.20
2019-06-27T10:16:02.529Z,22.30
2019-06-27T10:18:07.668Z,22.30
2019-06-27T10:20:12.645Z,22.30
2019-06-27T10:22:17.391Z,22.40
2019-06-27T10:24:21.953Z,22.40
2019-06-27T10:26:26.555Z,22.40
2019-06-27T10:28:31.417Z,22.40
2019-06-27T10:30:36.100Z,22.60
2019-06-27T10:32:54.319Z,22.50
2019-06-27T10:34:47.805Z,22.50
2019-06-27T10:36:53.586Z,22.60
2019-06-27T10:38:58.656Z,22.80
2019-06-27T10:41:03.960Z,22.80
2019-06-27T10:43:13.526Z,22.90
2019-06-27T10:45:20.234Z,22.90
2019-06-27T10:47:25.573Z,22.90
2019-06-27T10:49:31.276Z,22.90
2019-06-27T10:51:36.129Z,22.80
2019-06-27T10:53:41.176Z,22.90
2019-06-27T10:55:46.535Z,23.10
2019-06-27T10:57:51.294Z,23.10
2019-06-27T10:59:55.837Z,23.10
2019-06-27T11:02:00.976Z,23.10
2019-06-27T11:04:06.257Z,23.10
2019-06-27T11:06:11.035Z,23.10
2019-06-27T11:08:16.650Z,23.10
2019-06-27T11:10:21.353Z,23.10
2019-06-27T11:12:25.761Z,23.20
2019-06-27T11:14:30.696Z,23.10
2019-06-27T11:16:35.635Z,23.10
2019-06-27T11:18:40.548Z,23.20
2019-06-27T11:20:45.000Z,23.30
2019-06-27T11:22:49.872Z,23.40
2019-06-27T11:24:54.345Z,23.40
2019-06-27T11:27:00.088Z,23.40
2019-06-27T11:29:04.875Z,23.50
2019-06-27T11:31:09.353Z,23.50
2019-06-27T11:33:13.856Z,23.50
2019-06-27T11:35:18.726Z,23.60
2019-06-27T11:37:23.771Z,23.50
2019-06-27T11:39:29.631Z,23.60
2019-06-27T11:41:34.478Z,23.60
2019-06-27T11:43:39.181Z,23.60
2019-06-27T11:45:43.659Z,23.60
2019-06-27T11:47:48.107Z,23.70
2019-06-27T11:49:52.572Z,23.70
2019-06-27T11:51:57.010Z,23.70
2019-06-27T11:54:01.440Z,23.80
2019-06-27T11:56:05.888Z,24.00
2019-06-27T11:58:10.303Z,24.10
2019-06-27T12:00:15.580Z,24.20
2019-06-27T12:02:19.995Z,24.30
2019-06-27T12:04:24.581Z,24.30
2019-06-27T12:06:29.440Z,24.30
2019-06-27T12:08:33.951Z,24.30
2019-06-27T12:10:39.181Z,24.40
2019-06-27T12:12:43.697Z,24.40
2019-06-27T12:14:48.487Z,24.40
2019-06-27T12:16:52.925Z,24.40
2019-06-27T12:18:57.844Z,24.30
2019-06-27T12:21:05.727Z,24.40
2019-06-27T12:23:08.507Z,24.50
2019-06-27T12:25:13.155Z,24.40
2019-06-27T12:27:17.641Z,24.40
2019-06-27T12:29:22.141Z,24.60
2019-06-27T12:31:26.737Z,24.50
2019-06-27T12:33:31.191Z,24.50
2019-06-27T12:35:35.619Z,24.70
2019-06-27T12:37:41.032Z,24.70
2019-06-27T12:39:46.878Z,24.80
2019-06-27T12:41:51.680Z,24.90
2019-06-27T12:43:56.201Z,25.00
2019-06-27T12:46:01.243Z,25.10
2019-06-27T12:48:07.673Z,25.10
2019-06-27T12:50:13.156Z,25.20
2019-06-27T12:52:18.038Z,25.30
2019-06-27T12:54:22.849Z,25.40
2019-06-27T12:56:27.732Z,25.40
2019-06-27T12:58:32.539Z,25.40
2019-06-27T13:00:37.573Z,25.40
2019-06-27T13:02:42.383Z,25.40
2019-06-27T13:04:47.109Z,25.30
2019-06-27T13:06:51.602Z,25.20
2019-06-27T13:08:57.085Z,25.40
2019-06-27T13:11:01.896Z,25.40
2019-06-27T13:13:07.089Z,25.50
2019-06-27T13:15:12.205Z,25.60
2019-06-27T13:17:16.618Z,25.60
2019-06-27T13:19:21.357Z,25.60
2019-06-27T13:21:26.449Z,25.50
2019-06-27T13:23:31.947Z,25.50
2019-06-27T13:28:39.947Z,25.50
2019-06-27T13:33:48.125Z,25.40
2019-06-27T13:35:53.200Z,25.40
2019-06-27T13:37:58.084Z,25.50
2019-06-27T13:40:04.742Z,25.60
2019-06-27T13:42:09.976Z,25.50
2019-06-27T13:44:14.904Z,25.40
2019-06-27T13:46:21.132Z,25.40
2019-06-27T13:48:25.951Z,25.40
2019-06-27T13:50:31.346Z,25.50
2019-06-27T13:52:35.796Z,25.50
2019-06-27T13:57:57.660Z,25.60
2019-06-27T14:03:17.034Z,25.60
2019-06-27T14:05:21.451Z,25.80
2019-06-27T14:07:27.234Z,25.70
2019-06-27T14:09:31.966Z,25.60
2019-06-27T14:14:59.832Z,25.70
2019-06-27T14:16:58.718Z,25.80
2019-06-27T14:19:04.729Z,25.80
2019-06-27T14:21:09.261Z,25.70
2019-06-27T14:23:14.400Z,25.70
2019-06-27T14:28:33.886Z,25.80
2019-06-27T14:33:53.909Z,26.20
2019-06-27T14:35:58.351Z,26.00
2019-06-27T14:38:05.108Z,26.00
2019-06-27T14:40:10.391Z,26.20
2019-06-27T14:42:14.955Z,26.30
2019-06-27T14:44:20.745Z,26.50
2019-06-27T14:46:25.618Z,26.30
2019-06-27T14:48:30.102Z,26.40
2019-06-27T14:50:35.506Z,26.50
2019-06-27T14:52:42.036Z,26.50
2019-06-27T14:54:47.462Z,26.50
2019-06-27T14:56:52.459Z,26.70
2019-06-27T14:58:57.454Z,26.70
2019-06-27T15:01:05.760Z,26.80
2019-06-27T15:03:08.286Z,26.60
2019-06-27T15:05:28.082Z,26.60
2019-06-27T15:07:20.496Z,26.60
2019-06-27T15:09:25.304Z,26.30
2019-06-27T15:11:30.317Z,26.40
2019-06-27T15:13:34.865Z,26.30
2019-06-27T15:15:39.663Z,26.40
2019-06-27T15:17:44.633Z,26.40
2019-06-27T15:19:49.542Z,26.40
2019-06-27T15:21:54.106Z,26.40
2019-06-27T15:26:15.216Z,26.30
2019-06-27T15:28:21.578Z,26.40
2019-06-27T15:30:26.389Z,26.50
2019-06-27T15:32:31.114Z,26.70
2019-06-27T15:34:35.726Z,26.70
2019-06-27T15:36:40.242Z,26.60
2019-06-27T15:38:44.877Z,26.60
2019-06-27T15:40:49.717Z,26.60
2019-06-27T15:42:54.852Z,26.60
2019-06-27T15:44:59.836Z,26.50
2019-06-27T15:47:04.706Z,26.50
2019-06-27T15:49:09.627Z,26.50
2019-06-27T15:51:14.609Z,26.60
2019-06-27T15:53:19.246Z,26.50
2019-06-27T15:55:24.184Z,26.60
2019-06-27T15:57:28.767Z,26.40
2019-06-27T15:59:34.204Z,26.50
2019-06-27T16:01:38.716Z,26.50
2019-06-27T16:03:43.504Z,26.60
2019-06-27T16:05:48.124Z,26.60
2019-06-27T16:07:54.048Z,26.70
2019-06-27T16:09:58.674Z,26.70
2019-06-27T16:12:03.265Z,26.90
2019-06-27T16:14:08.028Z,26.80
2019-06-27T16:16:12.994Z,26.80
2019-06-27T16:18:17.877Z,26.80
2019-06-27T16:20:22.527Z,26.80
2019-06-27T16:22:27.236Z,26.90
2019-06-27T16:24:32.249Z,26.90
2019-06-27T16:26:36.866Z,27.00
2019-06-27T16:28:43.760Z,27.10
2019-06-27T16:30:48.939Z,27.20
2019-06-27T16:32:53.990Z,27.20
2019-06-27T16:34:58.678Z,27.30
2019-06-27T16:37:03.294Z,27.40
2019-06-27T16:39:07.907Z,27.40
2019-06-27T16:41:13.533Z,27.50
2019-06-27T16:43:18.249Z,27.60
2019-06-27T16:45:22.897Z,27.80
2019-06-27T16:47:28.372Z,28.00
2019-06-27T16:49:33.291Z,28.20
2019-06-27T16:51:39.195Z,28.50
2019-06-27T16:53:43.748Z,29.00
2019-06-27T16:55:49.871Z,29.20
2019-06-27T16:58:00.570Z,29.40
2019-06-27T17:00:07.161Z,29.60
2019-06-27T17:02:11.719Z,29.80
2019-06-27T17:04:16.371Z,30.10
2019-06-27T17:06:20.957Z,30.00
2019-06-27T17:08:26.105Z,30.10
2019-06-27T17:10:30.720Z,30.20
2019-06-27T17:12:35.302Z,30.40
2019-06-27T17:14:40.225Z,30.00
2019-06-27T17:16:45.075Z,30.10
2019-06-27T17:18:49.657Z,30.20
2019-06-27T17:20:54.784Z,30.00
2019-06-27T17:22:59.762Z,29.90
2019-06-27T17:25:04.476Z,29.30
2019-06-27T17:27:09.521Z,29.20
2019-06-27T17:29:14.067Z,29.40
2019-06-27T17:31:18.674Z,29.40
2019-06-27T17:33:23.520Z,29.30
2019-06-27T17:35:28.285Z,29.20
2019-06-27T17:37:33.355Z,29.10
2019-06-27T17:39:37.973Z,29.00
2019-06-27T17:41:42.422Z,28.70
2019-06-27T17:43:47.024Z,28.70
2019-06-27T17:45:51.521Z,28.40
2019-06-27T17:47:56.560Z,28.40
2019-06-27T17:50:01.179Z,28.20
2019-06-27T17:52:06.059Z,27.80
2019-06-27T17:54:11.342Z,27.80
2019-06-27T17:56:16.559Z,28.00
2019-06-27T17:58:21.339Z,28.00
2019-06-27T18:00:26.329Z,28.10
2019-06-27T18:02:30.916Z,27.90
2019-06-27T18:04:35.629Z,27.70
2019-06-27T18:06:40.142Z,27.70
2019-06-27T18:08:44.970Z,27.50
2019-06-27T18:10:49.780Z,27.20
2019-06-27T18:12:54.271Z,27.10
2019-06-27T18:14:58.775Z,27.10
2019-06-27T18:17:03.324Z,27.10
2019-06-27T18:19:08.012Z,26.90
2019-06-27T18:21:12.894Z,26.60
2019-06-27T18:23:18.001Z,26.60
2019-06-27T18:25:24.399Z,26.80
2019-06-27T18:27:29.052Z,26.60
2019-06-27T18:29:33.628Z,26.50
2019-06-27T18:31:39.147Z,26.40
2019-06-27T18:33:44.030Z,26.50
2019-06-27T18:35:48.546Z,26.50
2019-06-27T18:37:53.216Z,26.60
2019-06-27T18:39:58.043Z,26.30
2019-06-27T18:42:02.701Z,26.10
2019-06-27T18:44:07.636Z,25.70
2019-06-27T18:46:12.230Z,25.40
2019-06-27T18:48:17.745Z,25.30
2019-06-27T18:50:22.534Z,25.10
2019-06-27T18:52:27.406Z,25.00
2019-06-27T18:54:32.319Z,24.80
2019-06-27T18:56:36.843Z,24.70
2019-06-27T18:58:41.406Z,24.50
2019-06-27T19:00:46.409Z,24.40
2019-06-27T19:02:51.153Z,24.30
2019-06-27T19:04:56.000Z,24.20
2019-06-27T19:07:01.997Z,23.90
2019-06-27T19:09:06.983Z,23.80
2019-06-27T19:11:11.789Z,23.90
2019-06-27T19:13:16.857Z,23.70
2019-06-27T19:15:21.925Z,23.70
2019-06-27T19:17:26.896Z,23.70
2019-06-27T19:19:33.754Z,23.50
2019-06-27T19:21:45.552Z,23.40
2019-06-27T19:24:01.488Z,23.30
2019-06-27T19:26:08.915Z,23.30
2019-06-27T19:28:13.820Z,23.10
2019-06-27T19:30:18.952Z,23.00
2019-06-27T19:32:24.499Z,22.90
2019-06-27T19:34:29.411Z,22.80
2019-06-27T19:36:34.390Z,22.80
2019-06-27T19:38:38.952Z,22.80
2019-06-27T19:40:43.444Z,22.80
2019-06-27T19:42:48.273Z,22.60
2019-06-27T19:44:52.725Z,22.60
2019-06-27T19:46:57.266Z,22.50
2019-06-27T19:49:04.275Z,22.50
2019-06-27T19:51:08.753Z,22.40
2019-06-27T19:53:13.213Z,22.30
2019-06-27T19:55:18.022Z,22.20
2019-06-27T19:57:22.955Z,22.30
2019-06-27T19:59:27.748Z,22.10
2019-06-27T20:01:32.874Z,22.00
2019-06-27T20:03:38.717Z,21.90
2019-06-27T20:05:44.668Z,21.70
2019-06-27T20:07:51.220Z,21.70
2019-06-27T20:09:56.556Z,21.70
2019-06-27T20:12:00.977Z,21.70
2019-06-27T20:14:06.402Z,21.60
2019-06-27T20:16:15.009Z,21.60
2019-06-27T20:18:20.326Z,21.50
2019-06-27T20:20:31.806Z,21.50
2019-06-27T20:22:41.216Z,21.40
2019-06-27T20:24:45.847Z,21.40
2019-06-27T20:26:50.833Z,21.40
2019-06-27T20:28:56.298Z,21.30
2019-06-27T20:31:02.968Z,21.20
2019-06-27T20:33:07.857Z,21.20
2019-06-27T20:35:13.189Z,21.10
2019-06-27T20:37:20.794Z,21.00
2019-06-27T20:39:26.693Z,21.00
2019-06-27T20:41:31.869Z,21.00
2019-06-27T20:43:37.949Z,20.90
2019-06-27T20:45:42.929Z,20.80
2019-06-27T20:47:50.323Z,20.80
2019-06-27T20:49:55.889Z,20.70
2019-06-27T20:52:02.861Z,20.70
2019-06-27T20:54:07.321Z,20.60
2019-06-27T20:56:11.959Z,20.60
2019-06-27T20:58:16.808Z,20.40
2019-06-27T21:00:22.792Z,20.50
2019-06-27T21:02:28.716Z,20.40
2019-06-27T21:04:34.665Z,20.40
2019-06-27T21:06:40.790Z,20.40
2019-06-27T21:08:51.184Z,20.50
2019-06-27T21:10:51.633Z,20.50
2019-06-27T21:12:56.152Z,20.40
2019-06-27T21:15:00.717Z,20.30
2019-06-27T21:17:06.348Z,20.20
2019-06-27T21:19:10.965Z,20.20
2019-06-27T21:21:15.883Z,20.10
2019-06-27T21:23:21.343Z,20.10
2019-06-27T21:25:26.100Z,20.00
2019-06-27T21:27:31.384Z,20.00
2019-06-27T21:29:36.786Z,20.00
2019-06-27T21:31:43.363Z,20.00
2019-06-27T21:33:48.980Z,20.00
2019-06-27T21:35:56.178Z,19.90
2019-06-27T21:38:01.368Z,19.90
2019-06-27T21:40:06.226Z,19.80
2019-06-27T21:42:10.683Z,19.80
2019-06-27T21:44:15.147Z,19.80
2019-06-27T21:46:19.703Z,19.70
2019-06-27T21:48:24.159Z,19.70
2019-06-27T21:50:29.492Z,19.60
2019-06-27T21:52:34.386Z,19.50
2019-06-27T21:54:38.924Z,19.50
2019-06-27T21:56:43.781Z,19.50
2019-06-27T21:58:48.546Z,19.40
2019-06-27T22:00:53.511Z,19.40
2019-06-27T22:02:59.339Z,19.50
2019-06-27T22:05:04.275Z,19.50
2019-06-27T22:07:08.956Z,19.50
2019-06-27T22:09:23.997Z,19.40
2019-06-27T22:11:20.103Z,19.30
2019-06-27T22:13:40.045Z,19.30
2019-06-27T22:15:46.847Z,19.30
2019-06-27T22:17:51.361Z,19.30
2019-06-27T22:19:56.225Z,19.30
2019-06-27T22:22:00.971Z,19.20
2019-06-27T22:24:06.156Z,19.20
2019-06-27T22:26:10.936Z,19.20
2019-06-27T22:28:15.456Z,19.20
2019-06-27T22:30:21.009Z,19.10
2019-06-27T22:32:26.042Z,19.10
2019-06-27T22:34:30.486Z,19.00
2019-06-27T22:36:35.983Z,19.00
2019-06-27T22:38:57.739Z,19.00
2019-06-27T22:41:20.155Z,18.90
2019-06-27T22:43:41.900Z,18.90
2019-06-27T22:46:03.957Z,18.80
2019-06-27T22:48:13.047Z,18.70
2019-06-27T22:50:36.875Z,18.60
2019-06-27T22:53:13.159Z,18.50
2019-06-27T22:55:21.432Z,18.40
2019-06-27T22:57:26.321Z,18.50
2019-06-27T22:59:30.855Z,18.50
2019-06-27T23:01:35.283Z,18.40
2019-06-27T23:03:39.697Z,18.50
2019-06-27T23:05:44.779Z,18.40
2019-06-27T23:07:50.027Z,18.40
2019-06-27T23:09:57.297Z,18.30
2019-06-27T23:12:01.807Z,18.20
2019-06-27T23:14:06.187Z,18.20
2019-06-27T23:16:11.213Z,18.10
2019-06-27T23:18:15.791Z,18.20
2019-06-27T23:20:20.656Z,18.10
2019-06-27T23:22:25.587Z,18.10
2019-06-27T23:24:30.070Z,18.00
2019-06-27T23:26:35.290Z,18.00
2019-06-27T23:28:40.069Z,18.00
2019-06-27T23:30:44.538Z,18.00
2019-06-27T23:32:48.908Z,18.00
2019-06-27T23:34:53.692Z,17.90
2019-06-27T23:36:58.654Z,17.90
2019-06-27T23:39:03.341Z,17.80
2019-06-27T23:41:08.120Z,17.80
2019-06-27T23:43:12.548Z,17.80
2019-06-27T23:45:16.898Z,17.80
2019-06-27T23:47:21.743Z,17.80
2019-06-27T23:49:26.431Z,17.70
2019-06-27T23:51:31.823Z,17.70
2019-06-27T23:53:36.362Z,17.70
2019-06-27T23:55:40.857Z,17.60
2019-06-27T23:57:45.711Z,17.40
2019-06-27T23:59:50.568Z,17.30
